Terminal Aerodrome Forecast
Issued by NWS

Home | Current Version | Previous Version | Graphics & Text | Print | Product List | Glossary Off
Versions: 1 2 3 4 5 6 7 8 9 10 11 12 13 14

000
FTUS43 KDDC 151133
TAFHYS
TAF
KHYS 151133Z 1512/1612 26008KT P6SM BKN200
     FM151800 32012KT P6SM SCT250
     FM152300 36020G30KT P6SM SCT250=

USA.gov is the U.S. government's official web portal to all federal, state and local government web resources and services.